Weather reports worldwide

Advertisment
Fylingdales, United Kingdom (3281): temperature & dewpoint: 13.02.2018 15:00:00 - 19.02.2018 15:00:00 (GMT)Fylingdales, United Kingdom (3281): wind speed & gusts: 13.02.2018 15:00:00 - 19.02.2018 15:00:00 (GMT)Fylingdales, United Kingdom (3281): wind direction: 13.02.2018 15:00:00 - 19.02.2018 15:00:00 (GMT)Fylingdales, United Kingdom (3281): precipitation: 13.02.2018 15:00:00 - 19.02.2018 15:00:00 (GMT)
Date & Time tt [°C] td [°C] ff [km/h] ff [kn] fx [km/h] fx [kn] dd rr [mm]
19.02.2018 15:00:00 6,8 6,8 16 9 - - NNW 0,4
19.02.2018 14:00:00 6,8 6,8 16 9 - - NNW 0,6
19.02.2018 13:00:00 7,1 7,1 18 10 - - NNW 0,4
19.02.2018 12:00:00 7,4 7,4 16 9 - - NNW 0,0
19.02.2018 11:00:00 7,3 7,3 11 6 - - NW 0,2
19.02.2018 10:00:00 6,8 6,8 8 4 - - NNW 0,4
19.02.2018 09:00:00 6,0 6,0 2 1 - - W 0,6
19.02.2018 08:00:00 5,0 5,0 5 3 - - SW 0,8
19.02.2018 07:00:00 4,9 4,9 5 3 - - WSW 0,6
19.02.2018 06:00:00 4,9 4,9 13 7 - - SW 1,2
19.02.2018 05:00:00 4,6 4,6 13 7 - - SW 1,0
19.02.2018 04:00:00 4,6 4,6 11 6 - - SW 0,4
19.02.2018 03:00:00 4,6 4,6 15 8 - - SSW 0,2
19.02.2018 02:00:00 4,7 4,7 18 10 - - SSW 0,0
19.02.2018 01:00:00 4,6 4,6 18 10 - - SW 0,2
19.02.2018 00:00:00 4,6 4,6 16 9 - - SSW 0,4
18.02.2018 23:00:00 4,6 4,6 18 10 - - SSW 0,4
18.02.2018 22:00:00 4,6 4,5 21 11 - - SSW 0,0
18.02.2018 21:00:00 4,6 4,5 28 15 - - SSW 0,0
18.02.2018 20:00:00 4,8 4,4 26 14 - - SSW 0,0
18.02.2018 19:00:00 4,9 4,5 21 11 - - SSW 0,0
18.02.2018 18:00:00 5,0 4,3 26 14 - - S 0,0
18.02.2018 17:00:00 5,0 4,2 24 13 - - SSW 0,0
18.02.2018 16:00:00 4,5 4,2 18 10 - - SSW 0,0
18.02.2018 15:00:00 4,1 3,9 21 11 - - SSW 0,0
18.02.2018 14:00:00 4,8 3,9 21 11 - - SSW 0,0
18.02.2018 13:00:00 5,7 4,9 18 10 - - S 0,0
18.02.2018 12:00:00 3,6 3,5 15 8 - - SW 0,2
18.02.2018 11:00:00 3,3 3,1 13 7 - - SSW 0,0
18.02.2018 10:00:00 1,7 1,5 15 8 - - SW 0,2
18.02.2018 09:00:00 0,9 0,8 9 5 - - SSW 0,0
18.02.2018 08:00:00 0,4 0,2 15 8 - - SW 0,0
18.02.2018 07:00:00 0,3 0,1 15 8 - - SSW 0,0
18.02.2018 06:00:00 0,2 0,1 13 7 - - SSW 0,0
18.02.2018 05:00:00 0,5 0,1 15 8 - - SW 0,0
18.02.2018 04:00:00 0,7 0,3 9 5 - - SSW 0,0
18.02.2018 03:00:00 1,0 0,8 15 8 - - SSW 0,0
18.02.2018 02:00:00 1,2 1,0 13 7 - - SSW 0,0
18.02.2018 01:00:00 1,3 1,1 13 7 - - SSW 0,0
18.02.2018 00:00:00 0,8 0,5 9 5 - - S 0,0
17.02.2018 23:00:00 2,0 1,9 11 6 - - SSW 0,0
17.02.2018 22:00:00 1,6 1,4 15 8 - - SSW 0,0
17.02.2018 21:00:00 1,0 0,7 11 6 - - SSW 0,0
17.02.2018 20:00:00 1,1 0,8 13 7 - - SSW 0,0
17.02.2018 19:00:00 1,6 1,2 13 7 - - SSW 0,0
17.02.2018 18:00:00 2,9 2,6 16 9 - - SSW 0,0
17.02.2018 17:00:00 3,8 3,5 16 9 - - SW 0,0
17.02.2018 16:00:00 3,8 3,6 18 10 - - SSW 0,0
17.02.2018 15:00:00 3,6 3,6 18 10 - - SW 0,0
17.02.2018 14:00:00 3,2 3,1 22 12 - - SSW 0,0
17.02.2018 13:00:00 2,9 2,7 21 11 - - SSW 0,0
17.02.2018 12:00:00 2,7 2,4 24 13 - - SSW 0,2
17.02.2018 11:00:00 1,8 1,7 21 11 - - SSW 0,4
17.02.2018 10:00:00 1,6 1,3 24 13 - - SSW 0,2
17.02.2018 09:00:00 1,3 0,8 31 17 - - SSW 0,0
17.02.2018 08:00:00 1,3 0,6 34 18 - - SSW 0,0
17.02.2018 07:00:00 0,7 0,0 26 14 - - SSW 0,0
17.02.2018 06:00:00 0,5 -0,1 18 10 - - SSW 0,0
17.02.2018 05:00:00 1,5 0,5 22 12 - - S 0,0
17.02.2018 04:00:00 1,6 0,4 24 13 - - S 0,0
17.02.2018 03:00:00 1,1 -0,1 21 11 - - S 0,0
17.02.2018 02:00:00 0,9 -0,7 15 8 - - S 0,0
17.02.2018 01:00:00 1,5 -0,3 18 10 - - S 0,0
17.02.2018 00:00:00 2,0 0,0 21 11 - - SSW 0,0
16.02.2018 23:00:00 2,3 0,4 24 13 - - SSW 0,0
16.02.2018 22:00:00 2,7 0,6 22 12 - - SSW 0,0
16.02.2018 21:00:00 2,7 0,8 24 13 - - S 0,0
16.02.2018 20:00:00 2,3 0,4 18 10 - - S 0,0
16.02.2018 19:00:00 1,4 -0,4 18 10 - - S 0,0
16.02.2018 18:00:00 2,1 -0,3 13 7 - - S 0,0
16.02.2018 17:00:00 3,5 0,3 16 9 - - SW 0,0
16.02.2018 16:00:00 4,4 1,0 16 9 - - SW 0,0
16.02.2018 15:00:00 5,1 1,5 21 11 - - SW 0,0
16.02.2018 14:00:00 4,6 1,0 22 12 - - SW 0,0
16.02.2018 13:00:00 4,1 0,9 22 12 - - SW 0,0
16.02.2018 12:00:00 3,0 1,0 24 13 - - SSW 0,0
16.02.2018 11:00:00 2,5 0,9 28 15 - - SW 0,0
16.02.2018 10:00:00 1,3 0,1 24 13 - - SW 0,0
16.02.2018 09:00:00 0,8 0,1 26 14 - - SW 0,0
16.02.2018 08:00:00 -0,5 -1,2 18 10 - - SW 0,0
16.02.2018 07:00:00 -0,5 -1,5 15 8 - - SW 0,0
16.02.2018 06:00:00 0,2 -1,4 26 14 - - WSW 0,0
16.02.2018 05:00:00 -0,7 -2,0 8 4 - - SSE 0,0
16.02.2018 04:00:00 0,0 -1,8 18 10 - - WSW 0,0
16.02.2018 03:00:00 0,4 -1,6 21 11 - - WSW 0,0
16.02.2018 02:00:00 0,3 -1,7 22 12 - - WSW 0,0
16.02.2018 01:00:00 0,1 -1,3 22 12 - - WSW 0,0
16.02.2018 00:00:00 0,5 -1,0 29 16 - - WSW 0,0
15.02.2018 23:00:00 0,2 -1,0 28 15 - - SW 0,0
15.02.2018 22:00:00 0,4 -1,1 28 15 - - SW 0,0
15.02.2018 21:00:00 -0,3 -1,1 22 12 - - SW 0,0
15.02.2018 20:00:00 -0,2 -0,9 18 10 - - WSW 0,0
15.02.2018 19:00:00 0,8 -1,3 34 18 52 28 SW 0,0
15.02.2018 18:00:00 1,4 -2,1 34 18 57 31 WSW 0,0
15.02.2018 17:00:00 2,5 -3,2 31 17 61 33 WSW 0,0
15.02.2018 16:00:00 3,2 -1,7 29 16 65 35 WSW 0,0
15.02.2018 15:00:00 4,0 -2,2 39 21 72 39 WSW 0,0
15.02.2018 14:00:00 4,1 -1,0 37 20 61 33 WSW 0,0
15.02.2018 13:00:00 3,7 0,3 39 21 63 34 WSW 0,0
15.02.2018 12:00:00 4,2 0,1 34 18 72 39 WSW 0,4
15.02.2018 11:00:00 3,1 -0,2 39 21 61 33 WSW 0,0
15.02.2018 10:00:00 3,4 1,6 34 18 48 26 SW 0,0
15.02.2018 09:00:00 2,5 1,7 26 14 - - SW 0,0
15.02.2018 08:00:00 1,0 0,7 18 10 - - SW 0,0
15.02.2018 07:00:00 2,0 1,3 22 12 - - WSW 0,2
15.02.2018 06:00:00 3,2 3,2 28 15 - - SW 0,2
15.02.2018 05:00:00 3,8 3,8 24 13 - - SW 0,0
15.02.2018 04:00:00 3,8 3,8 22 12 - - SSW 0,0
15.02.2018 03:00:00 4,1 4,1 24 13 - - SSW 0,0
15.02.2018 02:00:00 4,1 4,1 26 14 - - SSW 0,0
15.02.2018 01:00:00 3,8 3,8 22 12 - - SSW 0,0
15.02.2018 00:00:00 3,7 3,7 24 13 - - SSW 0,0
14.02.2018 23:00:00 3,4 3,3 28 15 - - SSW 0,0
14.02.2018 22:00:00 3,3 3,1 31 17 48 26 SSW 0,2
14.02.2018 21:00:00 2,9 2,8 35 19 59 32 SSW 1,0
14.02.2018 20:00:00 2,6 2,5 41 22 65 35 S 0,6
14.02.2018 19:00:00 2,3 2,1 41 22 59 32 S 0,4
14.02.2018 18:00:00 1,9 1,7 42 23 63 34 S 0,4
14.02.2018 17:00:00 1,5 1,1 46 25 61 33 S 1,6
14.02.2018 16:00:00 0,7 0,5 35 19 50 27 S 0,8
14.02.2018 15:00:00 0,5 0,2 41 22 76 41 S 0,8
14.02.2018 14:00:00 1,5 0,3 44 24 70 38 S 0,0
14.02.2018 13:00:00 1,6 -0,2 50 27 70 38 S 0,2
14.02.2018 12:00:00 0,9 -0,9 37 20 57 31 S 0,4
14.02.2018 11:00:00 0,2 -0,7 37 20 54 29 S 0,0
14.02.2018 10:00:00 -0,3 -0,9 35 19 48 26 S -
14.02.2018 09:00:00 -1,1 -1,4 31 17 - - S 0,0
14.02.2018 08:00:00 -1,1 -1,6 28 15 - - S 0,0
14.02.2018 07:00:00 -1,9 -2,4 24 13 - - SSW 0,0
14.02.2018 06:00:00 -2,6 -3,6 21 11 - - W 0,0
14.02.2018 05:00:00 -2,1 -3,6 15 8 - - SSW 0,0
14.02.2018 04:00:00 -1,9 -3,0 9 5 - - NW 0,0
14.02.2018 03:00:00 -3,6 -4,8 9 5 - - NNW 0,0
14.02.2018 02:00:00 -1,9 -3,4 11 6 - - NNW 0,0
14.02.2018 01:00:00 -1,3 -3,4 5 3 - - N 0,0
14.02.2018 00:00:00 -1,2 -2,7 4 2 - - N 0,0
13.02.2018 23:00:00 -1,6 -2,8 2 1 - - N 0,0
13.02.2018 22:00:00 -1,0 -1,3 4 2 - - N 0,0
13.02.2018 21:00:00 -0,8 -1,2 8 4 - - NNW 0,0
13.02.2018 20:00:00 -0,7 -0,8 13 7 - - NNW 0,0
13.02.2018 19:00:00 -0,1 -0,2 9 5 - - NNW 0,0
13.02.2018 18:00:00 0,1 -0,1 8 4 - - N 0,0
13.02.2018 17:00:00 0,1 -0,4 13 7 - - NNW 0,0
13.02.2018 16:00:00 2,3 2,0 24 13 52 28 S 0,2
13.02.2018 15:00:00 2,3 2,0 37 20 52 28 S 0,0

tt = temperature
td = dewpoint
ff = wind speed
fx = gusts
dd = wind direction
rr = precipitation

Next stations